sensor_id;sensor_type;location;lat;lon;timestamp;P1;durP1;ratioP1;P2;durP2;ratioP2
35592;SDS011;64447;52.140;5.602;2023-06-24T00:00:59;18.02;;;13.57;;
35592;SDS011;64447;52.140;5.602;2023-06-24T00:03:25;18.02;;;14.05;;
35592;SDS011;64447;52.140;5.602;2023-06-24T00:05:51;18.95;;;13.63;;
35592;SDS011;64447;52.140;5.602;2023-06-24T00:08:18;15.85;;;12.43;;
35592;SDS011;64447;52.140;5.602;2023-06-24T00:10:45;17.20;;;12.10;;
35592;SDS011;64447;52.140;5.602;2023-06-24T00:13:11;16.33;;;12.45;;
35592;SDS011;64447;52.140;5.602;2023-06-24T00:15:38;14.63;;;12.60;;
35592;SDS011;64447;52.140;5.602;2023-06-24T00:18:07;16.00;;;12.48;;
35592;SDS011;64447;52.140;5.602;2023-06-24T00:20:34;16.67;;;13.27;;
35592;SDS011;64447;52.140;5.602;2023-06-24T00:22:59;13.43;;;11.40;;
35592;SDS011;64447;52.140;5.602;2023-06-24T00:25:25;16.85;;;12.88;;
35592;SDS011;64447;52.140;5.602;2023-06-24T00:31:12;19.15;;;13.30;;
35592;SDS011;64447;52.140;5.602;2023-06-24T00:33:38;16.48;;;12.43;;
35592;SDS011;64447;52.140;5.602;2023-06-24T00:36:04;16.48;;;13.73;;
35592;SDS011;64447;52.140;5.602;2023-06-24T00:38:31;18.33;;;12.80;;
35592;SDS011;64447;52.140;5.602;2023-06-24T00:40:57;15.20;;;12.68;;
35592;SDS011;64447;52.140;5.602;2023-06-24T00:43:23;16.45;;;12.70;;
35592;SDS011;64447;52.140;5.602;2023-06-24T00:45:50;15.18;;;11.63;;
35592;SDS011;64447;52.140;5.602;2023-06-24T00:48:16;14.32;;;11.90;;
35592;SDS011;64447;52.140;5.602;2023-06-24T00:50:42;17.00;;;12.60;;
35592;SDS011;64447;52.140;5.602;2023-06-24T00:53:10;13.48;;;11.07;;
35592;SDS011;64447;52.140;5.602;2023-06-24T00:55:37;14.48;;;12.93;;
35592;SDS011;64447;52.140;5.602;2023-06-24T01:01:25;24.52;;;13.05;;
35592;SDS011;64447;52.140;5.602;2023-06-24T01:03:50;13.85;;;12.00;;
35592;SDS011;64447;52.140;5.602;2023-06-24T01:06:16;17.42;;;12.93;;
35592;SDS011;64447;52.140;5.602;2023-06-24T01:08:43;15.13;;;11.98;;
35592;SDS011;64447;52.140;5.602;2023-06-24T01:11:15;15.73;;;13.45;;
35592;SDS011;64447;52.140;5.602;2023-06-24T01:13:41;14.10;;;12.60;;
35592;SDS011;64447;52.140;5.602;2023-06-24T01:16:09;14.10;;;12.15;;
35592;SDS011;64447;52.140;5.602;2023-06-24T01:18:46;16.77;;;12.63;;
35592;SDS011;64447;52.140;5.602;2023-06-24T01:21:21;15.65;;;12.80;;
35592;SDS011;64447;52.140;5.602;2023-06-24T01:33:07;16.45;;;13.35;;
35592;SDS011;64447;52.140;5.602;2023-06-24T01:35:37;15.30;;;12.55;;
35592;SDS011;64447;52.140;5.602;2023-06-24T01:38:10;16.75;;;13.95;;
35592;SDS011;64447;52.140;5.602;2023-06-24T01:40:46;15.32;;;13.68;;
35592;SDS011;64447;52.140;5.602;2023-06-24T01:43:13;19.23;;;13.63;;
35592;SDS011;64447;52.140;5.602;2023-06-24T01:45:45;16.90;;;13.02;;
35592;SDS011;64447;52.140;5.602;2023-06-24T01:48:15;14.85;;;13.23;;
35592;SDS011;64447;52.140;5.602;2023-06-24T01:50:52;17.33;;;12.95;;
35592;SDS011;64447;52.140;5.602;2023-06-24T01:53:23;15.73;;;12.48;;
35592;SDS011;64447;52.140;5.602;2023-06-24T01:55:51;14.38;;;12.35;;
35592;SDS011;64447;52.140;5.602;2023-06-24T01:58:19;15.23;;;13.07;;
35592;SDS011;64447;52.140;5.602;2023-06-24T02:00:47;15.57;;;12.93;;
35592;SDS011;64447;52.140;5.602;2023-06-24T02:03:14;15.40;;;12.98;;
35592;SDS011;64447;52.140;5.602;2023-06-24T02:05:40;15.77;;;12.23;;
35592;SDS011;64447;52.140;5.602;2023-06-24T02:08:07;18.48;;;13.13;;
35592;SDS011;64447;52.140;5.602;2023-06-24T02:10:36;15.93;;;12.32;;
35592;SDS011;64447;52.140;5.602;2023-06-24T02:13:03;16.58;;;12.93;;
35592;SDS011;64447;52.140;5.602;2023-06-24T02:15:31;17.33;;;13.70;;
35592;SDS011;64447;52.140;5.602;2023-06-24T02:17:59;15.98;;;12.68;;
35592;SDS011;64447;52.140;5.602;2023-06-24T02:20:27;18.83;;;13.68;;
35592;SDS011;64447;52.140;5.602;2023-06-24T02:22:54;15.30;;;12.85;;
35592;SDS011;64447;52.140;5.602;2023-06-24T02:25:22;19.10;;;12.93;;
35592;SDS011;64447;52.140;5.602;2023-06-24T02:27:49;16.25;;;13.50;;
35592;SDS011;64447;52.140;5.602;2023-06-24T02:30:15;15.15;;;13.00;;
35592;SDS011;64447;52.140;5.602;2023-06-24T02:32:41;17.92;;;13.23;;
35592;SDS011;64447;52.140;5.602;2023-06-24T02:35:07;14.77;;;12.43;;
35592;SDS011;64447;52.140;5.602;2023-06-24T02:37:33;14.10;;;12.60;;
35592;SDS011;64447;52.140;5.602;2023-06-24T02:39:58;17.08;;;13.30;;
35592;SDS011;64447;52.140;5.602;2023-06-24T02:42:25;15.73;;;13.88;;
35592;SDS011;64447;52.140;5.602;2023-06-24T02:44:51;18.20;;;13.07;;
35592;SDS011;64447;52.140;5.602;2023-06-24T02:47:17;18.35;;;12.95;;
35592;SDS011;64447;52.140;5.602;2023-06-24T02:49:44;17.00;;;13.75;;
35592;SDS011;64447;52.140;5.602;2023-06-24T02:52:11;17.13;;;13.07;;
35592;SDS011;64447;52.140;5.602;2023-06-24T02:54:38;18.67;;;14.57;;
35592;SDS011;64447;52.140;5.602;2023-06-24T02:57:04;16.30;;;13.48;;
35592;SDS011;64447;52.140;5.602;2023-06-24T02:59:31;18.95;;;13.55;;
35592;SDS011;64447;52.140;5.602;2023-06-24T03:01:57;16.75;;;13.52;;
35592;SDS011;64447;52.140;5.602;2023-06-24T03:04:24;19.50;;;14.10;;
35592;SDS011;64447;52.140;5.602;2023-06-24T03:06:51;19.08;;;14.00;;
35592;SDS011;64447;52.140;5.602;2023-06-24T03:09:17;16.83;;;14.32;;
35592;SDS011;64447;52.140;5.602;2023-06-24T03:11:43;15.45;;;13.15;;
35592;SDS011;64447;52.140;5.602;2023-06-24T03:14:09;18.20;;;13.18;;
35592;SDS011;64447;52.140;5.602;2023-06-24T03:16:35;17.48;;;14.18;;
35592;SDS011;64447;52.140;5.602;2023-06-24T03:19:03;18.60;;;13.77;;
35592;SDS011;64447;52.140;5.602;2023-06-24T03:21:29;17.05;;;13.32;;
35592;SDS011;64447;52.140;5.602;2023-06-24T03:23:54;15.00;;;12.82;;
35592;SDS011;64447;52.140;5.602;2023-06-24T03:26:20;15.90;;;13.50;;
35592;SDS011;64447;52.140;5.602;2023-06-24T03:32:08;15.13;;;12.95;;
35592;SDS011;64447;52.140;5.602;2023-06-24T03:34:33;18.33;;;13.57;;
35592;SDS011;64447;52.140;5.602;2023-06-24T03:36:59;15.80;;;12.90;;
35592;SDS011;64447;52.140;5.602;2023-06-24T03:39:25;17.90;;;12.60;;
35592;SDS011;64447;52.140;5.602;2023-06-24T03:41:50;15.65;;;12.98;;
35592;SDS011;64447;52.140;5.602;2023-06-24T03:44:16;16.40;;;12.85;;
35592;SDS011;64447;52.140;5.602;2023-06-24T03:46:41;16.08;;;14.07;;
35592;SDS011;64447;52.140;5.602;2023-06-24T03:49:07;15.75;;;12.25;;
35592;SDS011;64447;52.140;5.602;2023-06-24T03:51:33;16.13;;;12.70;;
35592;SDS011;64447;52.140;5.602;2023-06-24T03:53:59;16.98;;;12.95;;
35592;SDS011;64447;52.140;5.602;2023-06-24T03:56:24;17.20;;;12.80;;
35592;SDS011;64447;52.140;5.602;2023-06-24T04:02:26;16.17;;;12.45;;
35592;SDS011;64447;52.140;5.602;2023-06-24T04:04:52;16.02;;;13.05;;
35592;SDS011;64447;52.140;5.602;2023-06-24T04:07:17;16.13;;;13.00;;
35592;SDS011;64447;52.140;5.602;2023-06-24T04:09:53;16.08;;;12.77;;
35592;SDS011;64447;52.140;5.602;2023-06-24T04:12:20;15.45;;;13.00;;
35592;SDS011;64447;52.140;5.602;2023-06-24T04:14:45;18.92;;;13.05;;
35592;SDS011;64447;52.140;5.602;2023-06-24T04:17:11;15.35;;;12.52;;
35592;SDS011;64447;52.140;5.602;2023-06-24T04:19:36;16.27;;;13.15;;
35592;SDS011;64447;52.140;5.602;2023-06-24T04:22:02;15.82;;;13.88;;
35592;SDS011;64447;52.140;5.602;2023-06-24T04:24:28;15.77;;;13.70;;
35592;SDS011;64447;52.140;5.602;2023-06-24T04:26:53;15.77;;;13.10;;
35592;SDS011;64447;52.140;5.602;2023-06-24T04:29:20;15.68;;;12.65;;
35592;SDS011;64447;52.140;5.602;2023-06-24T04:31:45;16.30;;;12.98;;
35592;SDS011;64447;52.140;5.602;2023-06-24T04:34:11;17.05;;;13.55;;
35592;SDS011;64447;52.140;5.602;2023-06-24T04:36:36;20.92;;;14.52;;
35592;SDS011;64447;52.140;5.602;2023-06-24T04:39:03;16.83;;;13.60;;
35592;SDS011;64447;52.140;5.602;2023-06-24T04:41:29;18.92;;;14.73;;
35592;SDS011;64447;52.140;5.602;2023-06-24T04:47:17;21.08;;;16.75;;
35592;SDS011;64447;52.140;5.602;2023-06-24T04:49:43;23.35;;;17.52;;
35592;SDS011;64447;52.140;5.602;2023-06-24T04:52:10;24.17;;;17.60;;
35592;SDS011;64447;52.140;5.602;2023-06-24T04:54:36;22.50;;;16.83;;
35592;SDS011;64447;52.140;5.602;2023-06-24T04:57:02;22.70;;;17.13;;
35592;SDS011;64447;52.140;5.602;2023-06-24T04:59:27;24.98;;;17.20;;
35592;SDS011;64447;52.140;5.602;2023-06-24T05:01:53;20.17;;;15.93;;
35592;SDS011;64447;52.140;5.602;2023-06-24T05:04:18;19.60;;;14.65;;
35592;SDS011;64447;52.140;5.602;2023-06-24T05:06:44;20.30;;;14.98;;
35592;SDS011;64447;52.140;5.602;2023-06-24T05:09:10;20.30;;;16.48;;
35592;SDS011;64447;52.140;5.602;2023-06-24T05:11:38;17.33;;;14.02;;
35592;SDS011;64447;52.140;5.602;2023-06-24T05:17:26;19.70;;;13.43;;
35592;SDS011;64447;52.140;5.602;2023-06-24T05:19:52;18.00;;;12.10;;
35592;SDS011;64447;52.140;5.602;2023-06-24T05:22:18;16.85;;;12.63;;
35592;SDS011;64447;52.140;5.602;2023-06-24T05:24:43;16.40;;;11.65;;
35592;SDS011;64447;52.140;5.602;2023-06-24T05:27:09;16.15;;;10.63;;
35592;SDS011;64447;52.140;5.602;2023-06-24T05:29:34;13.50;;;9.02;;
35592;SDS011;64447;52.140;5.602;2023-06-24T05:32:00;13.73;;;9.90;;
35592;SDS011;64447;52.140;5.602;2023-06-24T05:34:28;13.27;;;9.55;;
35592;SDS011;64447;52.140;5.602;2023-06-24T05:36:54;12.82;;;9.35;;
35592;SDS011;64447;52.140;5.602;2023-06-24T05:39:20;12.98;;;9.40;;
35592;SDS011;64447;52.140;5.602;2023-06-24T05:41:45;12.30;;;9.00;;
35592;SDS011;64447;52.140;5.602;2023-06-24T05:47:35;11.48;;;8.45;;
35592;SDS011;64447;52.140;5.602;2023-06-24T05:50:00;10.60;;;8.05;;
35592;SDS011;64447;52.140;5.602;2023-06-24T05:52:26;13.15;;;8.88;;
35592;SDS011;64447;52.140;5.602;2023-06-24T05:54:53;12.88;;;8.80;;
35592;SDS011;64447;52.140;5.602;2023-06-24T05:57:19;10.55;;;7.63;;
35592;SDS011;64447;52.140;5.602;2023-06-24T05:59:44;11.50;;;7.97;;
35592;SDS011;64447;52.140;5.602;2023-06-24T06:02:10;8.63;;;7.70;;
35592;SDS011;64447;52.140;5.602;2023-06-24T06:04:36;11.35;;;8.32;;
35592;SDS011;64447;52.140;5.602;2023-06-24T06:07:03;9.88;;;7.88;;
35592;SDS011;64447;52.140;5.602;2023-06-24T06:09:29;19.77;;;8.02;;
35592;SDS011;64447;52.140;5.602;2023-06-24T06:11:54;13.88;;;9.10;;
35592;SDS011;64447;52.140;5.602;2023-06-24T06:17:42;9.02;;;7.38;;
35592;SDS011;64447;52.140;5.602;2023-06-24T06:20:08;12.93;;;7.85;;
35592;SDS011;64447;52.140;5.602;2023-06-24T06:22:33;12.45;;;8.13;;
35592;SDS011;64447;52.140;5.602;2023-06-24T06:25:03;13.93;;;7.65;;
35592;SDS011;64447;52.140;5.602;2023-06-24T06:27:30;9.90;;;7.15;;
35592;SDS011;64447;52.140;5.602;2023-06-24T06:29:55;11.02;;;7.60;;
35592;SDS011;64447;52.140;5.602;2023-06-24T06:32:21;9.05;;;7.10;;
35592;SDS011;64447;52.140;5.602;2023-06-24T06:34:47;9.77;;;7.25;;
35592;SDS011;64447;52.140;5.602;2023-06-24T06:37:12;10.20;;;6.93;;
35592;SDS011;64447;52.140;5.602;2023-06-24T06:39:38;10.52;;;7.35;;
35592;SDS011;64447;52.140;5.602;2023-06-24T06:42:04;8.40;;;6.90;;
35592;SDS011;64447;52.140;5.602;2023-06-24T06:47:51;11.73;;;8.15;;
35592;SDS011;64447;52.140;5.602;2023-06-24T06:50:17;11.35;;;8.10;;
35592;SDS011;64447;52.140;5.602;2023-06-24T06:52:43;8.82;;;7.13;;
35592;SDS011;64447;52.140;5.602;2023-06-24T06:55:09;11.93;;;7.80;;
35592;SDS011;64447;52.140;5.602;2023-06-24T06:57:35;7.85;;;6.13;;
35592;SDS011;64447;52.140;5.602;2023-06-24T07:00:00;7.88;;;6.82;;
35592;SDS011;64447;52.140;5.602;2023-06-24T07:02:26;10.48;;;6.97;;
35592;SDS011;64447;52.140;5.602;2023-06-24T07:04:52;11.35;;;6.95;;
35592;SDS011;64447;52.140;5.602;2023-06-24T07:07:17;8.95;;;6.47;;
35592;SDS011;64447;52.140;5.602;2023-06-24T07:09:43;10.15;;;6.50;;
35592;SDS011;64447;52.140;5.602;2023-06-24T07:12:09;8.20;;;5.68;;
35592;SDS011;64447;52.140;5.602;2023-06-24T07:17:56;9.55;;;7.13;;
35592;SDS011;64447;52.140;5.602;2023-06-24T07:20:22;11.30;;;7.65;;
35592;SDS011;64447;52.140;5.602;2023-06-24T07:22:47;8.82;;;6.60;;
35592;SDS011;64447;52.140;5.602;2023-06-24T07:25:13;10.70;;;6.47;;
35592;SDS011;64447;52.140;5.602;2023-06-24T07:27:39;9.65;;;7.35;;
35592;SDS011;64447;52.140;5.602;2023-06-24T07:30:05;8.20;;;6.57;;
35592;SDS011;64447;52.140;5.602;2023-06-24T07:32:31;11.32;;;6.88;;
35592;SDS011;64447;52.140;5.602;2023-06-24T07:34:56;9.60;;;6.60;;
35592;SDS011;64447;52.140;5.602;2023-06-24T07:37:22;6.97;;;5.00;;
35592;SDS011;64447;52.140;5.602;2023-06-24T07:39:48;7.97;;;5.88;;
35592;SDS011;64447;52.140;5.602;2023-06-24T07:42:13;8.85;;;5.63;;
35592;SDS011;64447;52.140;5.602;2023-06-24T07:48:05;13.00;;;6.25;;
35592;SDS011;64447;52.140;5.602;2023-06-24T07:50:32;7.35;;;5.72;;
35592;SDS011;64447;52.140;5.602;2023-06-24T07:52:59;7.20;;;5.85;;
35592;SDS011;64447;52.140;5.602;2023-06-24T07:55:24;7.75;;;5.53;;
35592;SDS011;64447;52.140;5.602;2023-06-24T07:57:50;9.18;;;6.18;;
35592;SDS011;64447;52.140;5.602;2023-06-24T08:00:16;7.28;;;5.60;;
35592;SDS011;64447;52.140;5.602;2023-06-24T08:02:42;6.60;;;4.90;;
35592;SDS011;64447;52.140;5.602;2023-06-24T08:05:08;13.18;;;5.80;;
35592;SDS011;64447;52.140;5.602;2023-06-24T08:07:34;6.70;;;5.22;;
35592;SDS011;64447;52.140;5.602;2023-06-24T08:10:00;5.03;;;4.43;;
35592;SDS011;64447;52.140;5.602;2023-06-24T08:12:26;8.30;;;5.05;;
35592;SDS011;64447;52.140;5.602;2023-06-24T08:18:13;6.53;;;5.18;;
35592;SDS011;64447;52.140;5.602;2023-06-24T08:20:39;7.18;;;5.35;;
35592;SDS011;64447;52.140;5.602;2023-06-24T08:23:04;7.13;;;5.00;;
35592;SDS011;64447;52.140;5.602;2023-06-24T08:25:30;6.28;;;4.43;;
35592;SDS011;64447;52.140;5.602;2023-06-24T08:27:56;5.38;;;4.25;;
35592;SDS011;64447;52.140;5.602;2023-06-24T08:30:21;5.57;;;4.80;;
35592;SDS011;64447;52.140;5.602;2023-06-24T08:32:47;6.07;;;4.60;;
35592;SDS011;64447;52.140;5.602;2023-06-24T08:35:13;6.13;;;4.78;;
35592;SDS011;64447;52.140;5.602;2023-06-24T08:37:39;5.90;;;3.90;;
35592;SDS011;64447;52.140;5.602;2023-06-24T08:40:05;5.72;;;4.60;;
35592;SDS011;64447;52.140;5.602;2023-06-24T08:42:31;5.85;;;4.60;;
35592;SDS011;64447;52.140;5.602;2023-06-24T08:48:18;4.75;;;4.10;;
35592;SDS011;64447;52.140;5.602;2023-06-24T08:50:46;5.68;;;4.32;;
35592;SDS011;64447;52.140;5.602;2023-06-24T08:53:17;6.63;;;4.97;;
35592;SDS011;64447;52.140;5.602;2023-06-24T08:55:45;5.90;;;4.93;;
35592;SDS011;64447;52.140;5.602;2023-06-24T08:58:12;6.15;;;4.60;;
35592;SDS011;64447;52.140;5.602;2023-06-24T09:00:38;6.55;;;4.47;;
35592;SDS011;64447;52.140;5.602;2023-06-24T09:03:04;6.55;;;4.25;;
35592;SDS011;64447;52.140;5.602;2023-06-24T09:05:29;5.20;;;4.60;;
35592;SDS011;64447;52.140;5.602;2023-06-24T09:07:55;4.75;;;3.78;;
35592;SDS011;64447;52.140;5.602;2023-06-24T09:12:56;7.88;;;5.00;;
35592;SDS011;64447;52.140;5.602;2023-06-24T09:15:22;5.95;;;4.57;;
35592;SDS011;64447;52.140;5.602;2023-06-24T09:17:47;6.85;;;5.35;;
35592;SDS011;64447;52.140;5.602;2023-06-24T09:20:13;5.53;;;4.82;;
35592;SDS011;64447;52.140;5.602;2023-06-24T09:22:42;10.68;;;5.32;;
35592;SDS011;64447;52.140;5.602;2023-06-24T09:25:07;6.18;;;4.63;;
35592;SDS011;64447;52.140;5.602;2023-06-24T09:27:33;5.30;;;4.68;;
35592;SDS011;64447;52.140;5.602;2023-06-24T09:33:21;6.00;;;4.53;;
35592;SDS011;64447;52.140;5.602;2023-06-24T09:35:47;8.68;;;4.72;;
35592;SDS011;64447;52.140;5.602;2023-06-24T09:38:14;8.10;;;5.30;;
35592;SDS011;64447;52.140;5.602;2023-06-24T09:41:01;7.47;;;5.78;;
35592;SDS011;64447;52.140;5.602;2023-06-24T09:43:33;7.75;;;5.30;;
35592;SDS011;64447;52.140;5.602;2023-06-24T09:46:04;7.00;;;5.35;;
35592;SDS011;64447;52.140;5.602;2023-06-24T09:48:30;7.13;;;5.20;;
35592;SDS011;64447;52.140;5.602;2023-06-24T09:50:59;9.93;;;6.40;;
35592;SDS011;64447;52.140;5.602;2023-06-24T09:53:31;10.02;;;6.30;;
35592;SDS011;64447;52.140;5.602;2023-06-24T09:55:59;7.70;;;6.05;;
35592;SDS011;64447;52.140;5.602;2023-06-24T09:58:28;8.88;;;6.47;;
35592;SDS011;64447;52.140;5.602;2023-06-24T10:01:01;8.68;;;6.00;;
35592;SDS011;64447;52.140;5.602;2023-06-24T10:03:32;7.90;;;5.40;;
35592;SDS011;64447;52.140;5.602;2023-06-24T10:06:00;7.47;;;5.07;;
35592;SDS011;64447;52.140;5.602;2023-06-24T10:08:27;6.90;;;5.22;;
35592;SDS011;64447;52.140;5.602;2023-06-24T10:10:55;7.70;;;5.88;;
35592;SDS011;64447;52.140;5.602;2023-06-24T10:13:21;8.35;;;6.70;;
35592;SDS011;64447;52.140;5.602;2023-06-24T10:15:47;7.43;;;5.93;;
35592;SDS011;64447;52.140;5.602;2023-06-24T10:21:00;8.30;;;6.13;;
35592;SDS011;64447;52.140;5.602;2023-06-24T10:26:14;8.57;;;6.07;;
35592;SDS011;64447;52.140;5.602;2023-06-24T10:44:51;9.93;;;6.60;;
35592;SDS011;64447;52.140;5.602;2023-06-24T10:47:18;9.45;;;7.57;;
35592;SDS011;64447;52.140;5.602;2023-06-24T10:49:45;11.80;;;7.85;;
35592;SDS011;64447;52.140;5.602;2023-06-24T10:52:11;12.55;;;8.25;;
35592;SDS011;64447;52.140;5.602;2023-06-24T10:54:37;10.75;;;6.93;;
35592;SDS011;64447;52.140;5.602;2023-06-24T10:57:03;11.60;;;8.43;;
35592;SDS011;64447;52.140;5.602;2023-06-24T10:59:36;11.05;;;6.93;;
35592;SDS011;64447;52.140;5.602;2023-06-24T11:02:05;7.50;;;6.47;;
35592;SDS011;64447;52.140;5.602;2023-06-24T11:04:32;8.50;;;6.30;;
35592;SDS011;64447;52.140;5.602;2023-06-24T11:06:58;9.15;;;6.63;;
35592;SDS011;64447;52.140;5.602;2023-06-24T11:09:24;10.55;;;8.00;;
35592;SDS011;64447;52.140;5.602;2023-06-24T11:11:50;7.68;;;6.13;;
35592;SDS011;64447;52.140;5.602;2023-06-24T11:14:15;9.38;;;6.50;;
35592;SDS011;64447;52.140;5.602;2023-06-24T11:16:41;9.55;;;5.97;;
35592;SDS011;64447;52.140;5.602;2023-06-24T11:19:07;9.60;;;7.13;;
35592;SDS011;64447;52.140;5.602;2023-06-24T11:21:33;9.73;;;6.40;;
35592;SDS011;64447;52.140;5.602;2023-06-24T11:24:02;6.50;;;5.57;;
35592;SDS011;64447;52.140;5.602;2023-06-24T11:26:28;7.10;;;5.55;;
35592;SDS011;64447;52.140;5.602;2023-06-24T11:28:54;7.90;;;6.68;;
35592;SDS011;64447;52.140;5.602;2023-06-24T11:31:24;7.63;;;5.88;;
35592;SDS011;64447;52.140;5.602;2023-06-24T11:33:50;8.68;;;6.38;;
35592;SDS011;64447;52.140;5.602;2023-06-24T11:36:18;8.70;;;5.55;;
35592;SDS011;64447;52.140;5.602;2023-06-24T11:38:47;6.88;;;5.95;;
35592;SDS011;64447;52.140;5.602;2023-06-24T11:41:13;7.68;;;6.00;;
35592;SDS011;64447;52.140;5.602;2023-06-24T11:43:45;9.48;;;6.13;;
35592;SDS011;64447;52.140;5.602;2023-06-24T11:49:47;8.18;;;5.70;;
35592;SDS011;64447;52.140;5.602;2023-06-24T11:52:26;9.63;;;7.13;;
35592;SDS011;64447;52.140;5.602;2023-06-24T11:54:58;8.38;;;6.20;;
35592;SDS011;64447;52.140;5.602;2023-06-24T11:57:46;8.75;;;6.00;;
35592;SDS011;64447;52.140;5.602;2023-06-24T12:00:22;6.45;;;5.60;;
35592;SDS011;64447;52.140;5.602;2023-06-24T12:02:50;7.30;;;5.82;;
35592;SDS011;64447;52.140;5.602;2023-06-24T12:05:24;9.13;;;7.38;;
35592;SDS011;64447;52.140;5.602;2023-06-24T12:08:02;7.88;;;6.00;;
35592;SDS011;64447;52.140;5.602;2023-06-24T12:10:34;8.15;;;6.07;;
35592;SDS011;64447;52.140;5.602;2023-06-24T12:13:01;6.65;;;5.90;;
35592;SDS011;64447;52.140;5.602;2023-06-24T12:15:28;6.60;;;5.90;;
35592;SDS011;64447;52.140;5.602;2023-06-24T12:17:54;9.38;;;6.07;;
35592;SDS011;64447;52.140;5.602;2023-06-24T12:20:20;7.53;;;6.55;;
35592;SDS011;64447;52.140;5.602;2023-06-24T12:22:47;7.95;;;6.53;;
35592;SDS011;64447;52.140;5.602;2023-06-24T12:25:13;8.23;;;6.38;;
35592;SDS011;64447;52.140;5.602;2023-06-24T12:27:41;7.22;;;6.07;;
35592;SDS011;64447;52.140;5.602;2023-06-24T12:30:08;9.48;;;7.22;;
35592;SDS011;64447;52.140;5.602;2023-06-24T12:32:34;6.35;;;5.70;;
35592;SDS011;64447;52.140;5.602;2023-06-24T12:35:00;10.30;;;7.60;;
35592;SDS011;64447;52.140;5.602;2023-06-24T12:37:29;7.28;;;5.78;;
35592;SDS011;64447;52.140;5.602;2023-06-24T12:39:55;9.43;;;6.53;;
35592;SDS011;64447;52.140;5.602;2023-06-24T12:42:21;8.77;;;6.38;;
35592;SDS011;64447;52.140;5.602;2023-06-24T12:44:47;8.73;;;7.18;;
35592;SDS011;64447;52.140;5.602;2023-06-24T12:47:12;8.93;;;7.38;;
35592;SDS011;64447;52.140;5.602;2023-06-24T12:49:38;6.90;;;6.10;;
35592;SDS011;64447;52.140;5.602;2023-06-24T12:52:03;8.93;;;6.82;;
35592;SDS011;64447;52.140;5.602;2023-06-24T12:54:29;8.35;;;6.60;;
35592;SDS011;64447;52.140;5.602;2023-06-24T12:56:55;10.88;;;7.00;;
35592;SDS011;64447;52.140;5.602;2023-06-24T12:59:22;9.95;;;7.75;;
35592;SDS011;64447;52.140;5.602;2023-06-24T13:01:47;9.15;;;7.63;;
35592;SDS011;64447;52.140;5.602;2023-06-24T13:04:13;9.18;;;7.10;;
35592;SDS011;64447;52.140;5.602;2023-06-24T13:06:38;7.40;;;6.25;;
35592;SDS011;64447;52.140;5.602;2023-06-24T13:09:05;7.63;;;6.10;;
35592;SDS011;64447;52.140;5.602;2023-06-24T13:11:37;6.85;;;6.15;;
35592;SDS011;64447;52.140;5.602;2023-06-24T13:14:03;8.40;;;5.95;;
35592;SDS011;64447;52.140;5.602;2023-06-24T13:19:50;6.10;;;5.50;;
35592;SDS011;64447;52.140;5.602;2023-06-24T13:22:17;9.38;;;6.30;;
35592;SDS011;64447;52.140;5.602;2023-06-24T13:24:43;8.23;;;7.22;;
35592;SDS011;64447;52.140;5.602;2023-06-24T13:27:09;8.10;;;6.68;;
35592;SDS011;64447;52.140;5.602;2023-06-24T13:29:35;8.85;;;7.45;;
35592;SDS011;64447;52.140;5.602;2023-06-24T13:32:00;8.35;;;6.63;;
35592;SDS011;64447;52.140;5.602;2023-06-24T13:34:26;6.35;;;5.18;;
35592;SDS011;64447;52.140;5.602;2023-06-24T13:36:51;7.68;;;6.10;;
35592;SDS011;64447;52.140;5.602;2023-06-24T13:39:17;7.93;;;6.53;;
35592;SDS011;64447;52.140;5.602;2023-06-24T13:41:46;7.28;;;6.45;;
35592;SDS011;64447;52.140;5.602;2023-06-24T13:44:11;10.48;;;6.82;;
35592;SDS011;64447;52.140;5.602;2023-06-24T13:49:59;8.68;;;5.80;;
35592;SDS011;64447;52.140;5.602;2023-06-24T13:52:25;6.63;;;5.72;;
35592;SDS011;64447;52.140;5.602;2023-06-24T13:54:51;8.30;;;5.88;;
35592;SDS011;64447;52.140;5.602;2023-06-24T13:57:18;8.40;;;6.20;;
35592;SDS011;64447;52.140;5.602;2023-06-24T13:59:43;7.40;;;6.07;;
35592;SDS011;64447;52.140;5.602;2023-06-24T14:02:09;9.00;;;6.65;;
35592;SDS011;64447;52.140;5.602;2023-06-24T14:04:36;8.25;;;6.60;;
35592;SDS011;64447;52.140;5.602;2023-06-24T14:07:04;7.90;;;5.50;;
35592;SDS011;64447;52.140;5.602;2023-06-24T14:09:30;6.38;;;5.72;;
35592;SDS011;64447;52.140;5.602;2023-06-24T14:11:56;7.57;;;6.22;;
35592;SDS011;64447;52.140;5.602;2023-06-24T14:14:22;6.00;;;5.28;;
35592;SDS011;64447;52.140;5.602;2023-06-24T14:20:10;9.15;;;6.30;;
35592;SDS011;64447;52.140;5.602;2023-06-24T14:22:36;7.05;;;5.63;;
35592;SDS011;64447;52.140;5.602;2023-06-24T14:25:02;7.13;;;5.75;;
35592;SDS011;64447;52.140;5.602;2023-06-24T14:27:27;6.82;;;5.78;;
35592;SDS011;64447;52.140;5.602;2023-06-24T14:29:53;8.15;;;5.80;;
35592;SDS011;64447;52.140;5.602;2023-06-24T14:32:18;9.35;;;6.43;;
35592;SDS011;64447;52.140;5.602;2023-06-24T14:34:44;8.05;;;5.95;;
35592;SDS011;64447;52.140;5.602;2023-06-24T14:37:10;7.18;;;5.55;;
35592;SDS011;64447;52.140;5.602;2023-06-24T14:39:35;6.85;;;6.13;;
35592;SDS011;64447;52.140;5.602;2023-06-24T14:42:01;7.43;;;5.75;;
35592;SDS011;64447;52.140;5.602;2023-06-24T14:44:26;6.03;;;4.93;;
35592;SDS011;64447;52.140;5.602;2023-06-24T14:46:52;6.72;;;5.75;;
35592;SDS011;64447;52.140;5.602;2023-06-24T14:49:18;6.68;;;5.55;;
35592;SDS011;64447;52.140;5.602;2023-06-24T14:51:43;9.88;;;6.57;;
35592;SDS011;64447;52.140;5.602;2023-06-24T14:54:09;7.07;;;5.38;;
35592;SDS011;64447;52.140;5.602;2023-06-24T14:56:34;7.70;;;6.22;;
35592;SDS011;64447;52.140;5.602;2023-06-24T14:59:00;8.77;;;6.47;;
35592;SDS011;64447;52.140;5.602;2023-06-24T15:01:26;9.23;;;6.35;;
35592;SDS011;64447;52.140;5.602;2023-06-24T15:03:51;7.65;;;5.45;;
35592;SDS011;64447;52.140;5.602;2023-06-24T15:06:17;7.22;;;5.57;;
35592;SDS011;64447;52.140;5.602;2023-06-24T15:08:42;6.45;;;5.47;;
35592;SDS011;64447;52.140;5.602;2023-06-24T15:11:08;12.10;;;6.03;;
35592;SDS011;64447;52.140;5.602;2023-06-24T15:13:34;7.68;;;5.78;;
35592;SDS011;64447;52.140;5.602;2023-06-24T15:16:00;8.48;;;5.93;;
35592;SDS011;64447;52.140;5.602;2023-06-24T15:18:25;8.43;;;6.20;;
35592;SDS011;64447;52.140;5.602;2023-06-24T15:20:51;7.97;;;5.50;;
35592;SDS011;64447;52.140;5.602;2023-06-24T15:23:19;7.18;;;5.50;;
35592;SDS011;64447;52.140;5.602;2023-06-24T15:25:44;7.57;;;6.22;;
35592;SDS011;64447;52.140;5.602;2023-06-24T15:28:10;5.40;;;4.82;;
35592;SDS011;64447;52.140;5.602;2023-06-24T15:37:16;7.15;;;5.78;;
35592;SDS011;64447;52.140;5.602;2023-06-24T15:39:41;7.38;;;5.53;;
35592;SDS011;64447;52.140;5.602;2023-06-24T15:42:07;6.32;;;5.72;;
35592;SDS011;64447;52.140;5.602;2023-06-24T15:44:33;9.68;;;6.10;;
35592;SDS011;64447;52.140;5.602;2023-06-24T15:50:20;6.70;;;5.78;;
35592;SDS011;64447;52.140;5.602;2023-06-24T15:52:46;6.38;;;5.78;;
35592;SDS011;64447;52.140;5.602;2023-06-24T15:55:12;6.30;;;5.53;;
35592;SDS011;64447;52.140;5.602;2023-06-24T15:57:37;5.63;;;4.95;;
35592;SDS011;64447;52.140;5.602;2023-06-24T16:00:04;11.65;;;6.10;;
35592;SDS011;64447;52.140;5.602;2023-06-24T16:05:52;5.97;;;5.38;;
35592;SDS011;64447;52.140;5.602;2023-06-24T16:08:18;5.60;;;5.03;;
35592;SDS011;64447;52.140;5.602;2023-06-24T16:10:43;7.10;;;5.78;;
35592;SDS011;64447;52.140;5.602;2023-06-24T16:13:09;7.93;;;5.75;;
35592;SDS011;64447;52.140;5.602;2023-06-24T16:15:37;6.53;;;5.93;;
35592;SDS011;64447;52.140;5.602;2023-06-24T16:21:25;7.15;;;6.00;;
35592;SDS011;64447;52.140;5.602;2023-06-24T16:23:50;7.47;;;6.00;;
35592;SDS011;64447;52.140;5.602;2023-06-24T16:26:16;7.55;;;6.00;;